createdAt,value
2022-12-18T00:02:20.895Z,24.87
2022-12-18T00:04:47.322Z,26.58
2022-12-18T00:07:13.719Z,27.94
2022-12-18T00:09:40.675Z,25.85
2022-12-18T00:14:42.275Z,24.01
2022-12-18T00:17:08.698Z,24.89
2022-12-18T00:19:36.895Z,25.20
2022-12-18T00:22:03.333Z,25.41
2022-12-18T00:24:29.748Z,29.38
2022-12-18T00:26:56.155Z,24.35
2022-12-18T00:29:22.574Z,24.72
2022-12-18T00:31:49.094Z,24.89
2022-12-18T00:34:15.523Z,25.02
2022-12-18T00:36:41.949Z,25.17
2022-12-18T00:39:08.430Z,23.55
2022-12-18T00:41:34.848Z,24.50
2022-12-18T00:44:01.265Z,25.02
2022-12-18T00:46:27.663Z,26.21
2022-12-18T00:48:54.053Z,29.46
2022-12-18T00:51:20.487Z,27.54
2022-12-18T00:53:46.911Z,28.17
2022-12-18T00:56:13.319Z,28.28
2022-12-18T00:58:39.746Z,27.60
2022-12-18T01:01:06.162Z,28.67
2022-12-18T01:03:32.633Z,28.01
2022-12-18T01:05:59.170Z,28.24
2022-12-18T01:08:25.576Z,28.42
2022-12-18T01:10:52.009Z,28.25
2022-12-18T01:13:18.502Z,27.35
2022-12-18T01:15:44.958Z,27.46
2022-12-18T01:18:11.371Z,26.99
2022-12-18T01:20:37.791Z,26.93
2022-12-18T01:23:04.196Z,26.30
2022-12-18T01:25:30.643Z,24.41
2022-12-18T01:27:57.102Z,24.33
2022-12-18T01:30:23.526Z,24.77
2022-12-18T01:32:49.952Z,29.33
2022-12-18T01:35:16.389Z,29.57
2022-12-18T01:37:42.836Z,29.66
2022-12-18T01:40:09.259Z,30.19
2022-12-18T01:42:35.695Z,30.13
2022-12-18T01:45:02.143Z,30.08
2022-12-18T01:47:28.570Z,28.78
2022-12-18T01:49:54.983Z,28.82
2022-12-18T01:52:21.383Z,26.71
2022-12-18T01:54:47.823Z,26.73
2022-12-18T01:57:14.244Z,26.59
2022-12-18T01:59:40.662Z,27.57
2022-12-18T02:02:07.799Z,29.26
2022-12-18T02:04:34.350Z,28.33
2022-12-18T02:07:00.794Z,27.95
2022-12-18T02:09:27.329Z,28.35
2022-12-18T02:11:53.757Z,27.68
2022-12-18T02:14:20.199Z,27.57
2022-12-18T02:16:46.772Z,28.19
2022-12-18T02:19:13.263Z,28.44
2022-12-18T02:21:39.693Z,27.51
2022-12-18T02:24:06.131Z,27.31
2022-12-18T02:26:32.598Z,30.34
2022-12-18T02:28:59.023Z,26.02
2022-12-18T02:31:25.440Z,22.49
2022-12-18T02:33:51.887Z,22.25
2022-12-18T02:36:18.289Z,24.34
2022-12-18T02:38:44.723Z,25.01
2022-12-18T02:41:11.135Z,25.22
2022-12-18T02:43:37.825Z,25.88
2022-12-18T02:46:04.675Z,25.08
2022-12-18T02:48:31.142Z,25.99
2022-12-18T02:50:57.574Z,28.13
2022-12-18T02:53:24.015Z,30.28
2022-12-18T02:55:50.442Z,23.63
2022-12-18T02:58:16.896Z,20.81
2022-12-18T03:00:43.311Z,17.02
2022-12-18T03:03:09.826Z,15.36
2022-12-18T03:05:36.325Z,17.56
2022-12-18T03:08:02.814Z,18.68
2022-12-18T03:10:29.224Z,18.51
2022-12-18T03:12:55.667Z,17.45
2022-12-18T03:15:22.085Z,16.06
2022-12-18T03:17:48.509Z,15.05
2022-12-18T03:20:14.932Z,15.58
2022-12-18T03:22:41.365Z,16.29
2022-12-18T03:25:07.806Z,16.00
2022-12-18T03:27:34.289Z,17.32
2022-12-18T03:30:00.711Z,18.11
2022-12-18T03:32:27.147Z,17.41
2022-12-18T03:34:53.553Z,17.94
2022-12-18T03:37:19.949Z,18.06
2022-12-18T03:39:46.397Z,16.85
2022-12-18T03:42:12.843Z,16.59
2022-12-18T03:44:39.311Z,17.69
2022-12-18T03:47:05.749Z,17.65
2022-12-18T03:49:32.179Z,17.64
2022-12-18T03:51:58.612Z,18.08
2022-12-18T03:54:25.041Z,18.39
2022-12-18T03:56:51.472Z,16.96
2022-12-18T03:59:17.984Z,17.95
2022-12-18T04:01:44.457Z,18.28
2022-12-18T04:04:11.110Z,18.97
2022-12-18T04:06:37.567Z,19.35
2022-12-18T04:09:04.034Z,18.95
2022-12-18T04:11:30.453Z,18.31
2022-12-18T04:13:56.898Z,17.58
2022-12-18T04:16:23.461Z,17.44
2022-12-18T04:18:49.898Z,18.19
2022-12-18T04:21:17.329Z,17.29
2022-12-18T04:23:43.892Z,17.79
2022-12-18T04:26:10.322Z,19.84
2022-12-18T04:28:36.741Z,19.96
2022-12-18T04:31:03.174Z,17.82
2022-12-18T04:33:29.644Z,16.09
2022-12-18T04:35:56.076Z,15.23
2022-12-18T04:38:22.500Z,16.31
2022-12-18T04:40:48.944Z,17.80
2022-12-18T04:43:15.424Z,20.60
2022-12-18T04:45:41.888Z,20.42
2022-12-18T04:48:08.316Z,17.37
2022-12-18T04:50:34.787Z,18.71
2022-12-18T04:53:01.224Z,17.80
2022-12-18T04:55:27.651Z,18.39
2022-12-18T04:57:54.116Z,19.97
2022-12-18T05:00:20.557Z,19.89
2022-12-18T05:02:47.056Z,20.07
2022-12-18T05:05:13.577Z,20.44
2022-12-18T05:07:40.021Z,21.50
2022-12-18T05:10:06.477Z,23.10
2022-12-18T05:12:32.904Z,23.93
2022-12-18T05:14:59.334Z,24.32
2022-12-18T05:17:25.745Z,24.90
2022-12-18T05:19:52.197Z,24.67
2022-12-18T05:22:18.638Z,25.98
2022-12-18T05:24:45.245Z,25.82
2022-12-18T05:27:11.675Z,25.74
2022-12-18T05:29:38.206Z,27.22
2022-12-18T05:32:04.621Z,29.39
2022-12-18T05:34:31.065Z,27.05
2022-12-18T05:36:57.526Z,25.07
2022-12-18T05:39:23.954Z,23.56
2022-12-18T05:41:50.707Z,22.00
2022-12-18T05:44:17.183Z,23.06
2022-12-18T05:46:43.733Z,24.44
2022-12-18T05:49:10.234Z,24.15
2022-12-18T05:51:36.902Z,24.77
2022-12-18T05:54:03.306Z,25.92
2022-12-18T05:56:29.794Z,22.46
2022-12-18T05:58:56.216Z,21.94
2022-12-18T06:01:23.892Z,22.92
2022-12-18T06:03:50.506Z,23.55
2022-12-18T06:06:17.066Z,23.97
2022-12-18T06:08:46.447Z,25.53
2022-12-18T06:11:13.446Z,57.71
2022-12-18T06:13:40.173Z,32.45
2022-12-18T06:16:07.020Z,26.87
2022-12-18T06:18:33.484Z,28.29
2022-12-18T06:20:59.904Z,26.90
2022-12-18T06:23:26.354Z,24.39
2022-12-18T06:25:52.789Z,25.03
2022-12-18T06:28:19.235Z,26.41
2022-12-18T06:30:45.772Z,24.95
2022-12-18T06:33:12.213Z,23.70
2022-12-18T06:35:38.650Z,23.32
2022-12-18T06:38:05.107Z,25.15
2022-12-18T06:40:31.522Z,26.07
2022-12-18T06:42:57.985Z,25.71
2022-12-18T06:45:24.448Z,26.67
2022-12-18T06:47:50.939Z,26.29
2022-12-18T06:50:17.396Z,26.14
2022-12-18T06:52:43.829Z,26.44
2022-12-18T06:55:10.354Z,26.60
2022-12-18T06:57:36.796Z,26.72
2022-12-18T07:00:06.964Z,26.44
2022-12-18T07:02:33.507Z,26.89
2022-12-18T07:05:00.196Z,26.43
2022-12-18T07:07:26.696Z,26.08
2022-12-18T07:09:53.144Z,25.88
2022-12-18T07:12:19.818Z,26.28
2022-12-18T07:14:46.379Z,25.59
2022-12-18T07:17:12.857Z,24.72
2022-12-18T07:19:39.334Z,25.69
2022-12-18T07:22:05.786Z,26.15
2022-12-18T07:24:32.970Z,26.42
2022-12-18T07:26:59.395Z,26.11
2022-12-18T07:29:25.797Z,26.86
2022-12-18T07:31:52.295Z,26.86
2022-12-18T07:34:18.765Z,26.50
2022-12-18T07:36:45.193Z,27.21
2022-12-18T07:39:11.609Z,28.39
2022-12-18T07:41:40.264Z,27.41
2022-12-18T07:44:10.182Z,28.39
2022-12-18T07:46:36.607Z,28.90
2022-12-18T07:49:03.052Z,27.66
2022-12-18T07:51:29.490Z,25.16
2022-12-18T07:53:55.916Z,25.94
2022-12-18T07:56:27.552Z,30.72
2022-12-18T07:58:54.880Z,27.12
2022-12-18T08:01:21.513Z,26.93
2022-12-18T08:03:48.099Z,25.67
2022-12-18T08:06:14.694Z,23.93
2022-12-18T08:08:41.106Z,23.51
2022-12-18T08:11:07.623Z,23.46
2022-12-18T08:13:34.061Z,24.22
2022-12-18T08:16:00.466Z,25.98
2022-12-18T08:18:26.949Z,26.33
2022-12-18T08:20:53.393Z,27.15
2022-12-18T08:23:19.824Z,26.94
2022-12-18T08:25:46.272Z,27.31
2022-12-18T08:28:12.682Z,26.06
2022-12-18T08:30:39.189Z,26.23
2022-12-18T08:33:05.646Z,27.11
2022-12-18T08:35:36.440Z,26.72
2022-12-18T08:38:05.263Z,25.17
2022-12-18T08:40:31.690Z,24.72
2022-12-18T08:42:58.115Z,23.37
2022-12-18T08:45:24.532Z,23.19
2022-12-18T08:47:50.975Z,24.19
2022-12-18T08:50:17.396Z,24.23
2022-12-18T08:52:44.976Z,24.56
2022-12-18T08:55:12.651Z,25.13
2022-12-18T08:57:39.110Z,25.31
2022-12-18T09:00:06.554Z,24.72
2022-12-18T09:02:33.122Z,24.39
2022-12-18T09:04:59.613Z,24.83
2022-12-18T09:07:26.032Z,24.17
2022-12-18T09:09:52.461Z,24.09
2022-12-18T09:12:18.928Z,24.99
2022-12-18T09:14:45.389Z,24.41
2022-12-18T09:17:11.892Z,24.97
2022-12-18T09:19:38.341Z,25.76
2022-12-18T09:22:04.764Z,25.32
2022-12-18T09:24:31.164Z,26.15
2022-12-18T09:26:58.212Z,25.53
2022-12-18T09:29:24.691Z,24.86
2022-12-18T09:31:51.107Z,25.04
2022-12-18T09:34:17.538Z,24.73
2022-12-18T09:36:43.953Z,25.96
2022-12-18T09:39:10.399Z,26.92
2022-12-18T09:41:36.820Z,26.51
2022-12-18T09:44:03.225Z,26.67
2022-12-18T09:46:29.689Z,27.28
2022-12-18T09:48:56.167Z,27.11
2022-12-18T09:51:22.581Z,26.59
2022-12-18T09:53:49.069Z,26.18
2022-12-18T09:56:15.500Z,26.79
2022-12-18T09:58:42.211Z,27.03
2022-12-18T10:01:08.939Z,26.48
2022-12-18T10:03:35.366Z,27.04
2022-12-18T10:06:01.830Z,26.29
2022-12-18T10:08:28.258Z,27.07
2022-12-18T10:10:54.791Z,28.21
2022-12-18T10:13:21.249Z,26.67
2022-12-18T10:15:50.308Z,27.01
2022-12-18T10:18:21.662Z,27.07
2022-12-18T10:20:48.563Z,26.04
2022-12-18T10:23:14.986Z,25.94
2022-12-18T10:25:41.447Z,25.48
2022-12-18T10:28:07.870Z,25.96
2022-12-18T10:30:34.559Z,25.59
2022-12-18T10:33:02.561Z,27.22
2022-12-18T10:35:32.917Z,44.92
2022-12-18T10:38:22.396Z,50.40
2022-12-18T10:44:06.471Z,29.53
2022-12-18T10:46:39.282Z,27.58
2022-12-18T10:49:08.231Z,26.51
2022-12-18T10:51:35.122Z,26.20
2022-12-18T10:54:06.809Z,26.22
2022-12-18T10:56:34.473Z,27.17
2022-12-18T10:59:03.078Z,26.49
2022-12-18T11:01:33.976Z,26.19
2022-12-18T11:04:04.552Z,26.01
2022-12-18T11:06:32.306Z,26.33
2022-12-18T11:09:09.362Z,26.02
2022-12-18T11:11:40.727Z,29.67
2022-12-18T11:14:07.663Z,26.67
2022-12-18T11:19:30.780Z,26.67
2022-12-18T11:21:58.233Z,26.64
2022-12-18T11:24:27.003Z,25.98
2022-12-18T11:26:59.321Z,26.90
2022-12-18T11:29:27.128Z,26.51
2022-12-18T11:34:39.314Z,26.41
2022-12-18T11:37:06.997Z,26.64
2022-12-18T11:39:34.533Z,29.87
2022-12-18T11:42:02.126Z,26.77
2022-12-18T11:44:28.881Z,27.61
2022-12-18T11:46:56.508Z,26.47
2022-12-18T11:49:24.043Z,27.19
2022-12-18T11:51:51.690Z,27.22
2022-12-18T11:54:20.392Z,27.06
2022-12-18T11:56:50.045Z,27.61
2022-12-18T11:59:22.177Z,28.39
2022-12-18T12:01:49.198Z,28.77
2022-12-18T12:04:17.816Z,27.86
2022-12-18T12:06:47.082Z,27.36
2022-12-18T12:09:14.958Z,26.32
2022-12-18T12:11:42.588Z,27.75
2022-12-18T12:14:10.181Z,28.74
2022-12-18T12:16:37.139Z,28.07
2022-12-18T12:19:04.378Z,27.99
2022-12-18T12:21:31.978Z,28.17
2022-12-18T12:23:59.812Z,27.80
2022-12-18T12:26:27.353Z,28.64
2022-12-18T12:28:55.146Z,27.25
2022-12-18T12:31:24.157Z,27.81
2022-12-18T12:33:51.348Z,27.25
2022-12-18T12:36:18.138Z,27.23
2022-12-18T12:38:50.017Z,26.83
2022-12-18T12:41:19.256Z,27.19
2022-12-18T12:43:50.561Z,25.94
2022-12-18T12:46:19.564Z,25.67
2022-12-18T12:48:48.092Z,24.76
2022-12-18T12:51:15.691Z,24.67
2022-12-18T12:53:44.674Z,24.83
2022-12-18T12:56:12.891Z,23.54
2022-12-18T12:58:39.510Z,24.50
2022-12-18T13:01:08.165Z,24.75
2022-12-18T13:03:35.687Z,25.79
2022-12-18T13:06:02.292Z,26.47
2022-12-18T13:08:31.111Z,27.71
2022-12-18T13:11:00.600Z,24.72
2022-12-18T13:13:29.152Z,24.48
2022-12-18T13:15:56.706Z,24.59
2022-12-18T13:18:24.294Z,25.61
2022-12-18T13:20:55.180Z,25.89
2022-12-18T13:23:25.281Z,25.65
2022-12-18T13:25:53.083Z,24.90
2022-12-18T13:28:20.693Z,24.68
2022-12-18T13:30:48.316Z,25.61
2022-12-18T13:33:15.888Z,24.84
2022-12-18T13:35:44.531Z,25.15
2022-12-18T13:38:11.557Z,25.52
2022-12-18T13:40:38.136Z,25.10
2022-12-18T13:43:04.592Z,24.34
2022-12-18T13:45:31.839Z,24.72
2022-12-18T13:47:59.452Z,24.47
2022-12-18T13:50:30.975Z,25.15
2022-12-18T13:53:02.691Z,28.26
2022-12-18T13:55:30.286Z,28.32
2022-12-18T13:57:57.866Z,25.81
2022-12-18T14:00:25.476Z,24.78
2022-12-18T14:02:53.218Z,26.17
2022-12-18T14:05:20.686Z,26.43
2022-12-18T14:07:51.884Z,26.38
2022-12-18T14:10:42.214Z,27.00
2022-12-18T14:13:06.560Z,27.11
2022-12-18T14:15:35.181Z,27.45
2022-12-18T14:18:02.767Z,26.33
2022-12-18T14:20:29.348Z,27.08
2022-12-18T14:22:57.934Z,26.94
2022-12-18T14:25:25.517Z,26.94
2022-12-18T14:27:53.113Z,26.45
2022-12-18T14:30:20.715Z,26.61
2022-12-18T14:32:48.297Z,26.37
2022-12-18T14:35:14.897Z,26.30
2022-12-18T14:37:41.489Z,25.72
2022-12-18T14:40:11.520Z,26.08
2022-12-18T14:42:38.717Z,25.69
2022-12-18T14:45:13.855Z,25.74
2022-12-18T14:47:41.980Z,26.72
2022-12-18T14:50:09.499Z,27.61
2022-12-18T14:52:36.077Z,27.84
2022-12-18T14:55:02.664Z,27.95
2022-12-18T14:57:29.263Z,28.63
2022-12-18T14:59:55.872Z,28.08
2022-12-18T15:02:23.647Z,28.25
2022-12-18T15:04:51.045Z,29.23
2022-12-18T15:07:17.606Z,27.43
2022-12-18T15:09:46.231Z,27.02
2022-12-18T15:12:12.815Z,27.89
2022-12-18T15:14:40.463Z,29.01
2022-12-18T15:17:07.980Z,28.94
2022-12-18T15:19:35.672Z,28.40
2022-12-18T15:22:06.317Z,27.69
2022-12-18T15:24:33.891Z,28.15
2022-12-18T15:27:01.507Z,28.04
2022-12-18T15:29:28.128Z,27.50
2022-12-18T15:31:55.669Z,28.22
2022-12-18T15:34:22.275Z,30.45
2022-12-18T15:36:49.839Z,29.96
2022-12-18T15:39:17.438Z,29.38
2022-12-18T15:41:45.025Z,47.67
2022-12-18T15:44:12.640Z,36.33
2022-12-18T15:46:40.283Z,30.39
2022-12-18T15:49:08.803Z,29.99
2022-12-18T15:51:37.477Z,38.18
2022-12-18T15:54:05.008Z,43.34
2022-12-18T15:56:32.614Z,34.86
2022-12-18T15:59:00.199Z,30.42
2022-12-18T16:01:27.948Z,28.74
2022-12-18T16:03:56.775Z,27.85
2022-12-18T16:06:24.034Z,27.62
2022-12-18T16:08:51.553Z,27.91
2022-12-18T16:11:18.151Z,28.06
2022-12-18T16:13:47.017Z,28.43
2022-12-18T16:16:13.575Z,28.65
2022-12-18T16:18:40.054Z,27.55
2022-12-18T16:21:07.501Z,29.49
2022-12-18T16:23:34.098Z,31.40
2022-12-18T16:26:00.725Z,40.98
2022-12-18T16:28:28.274Z,40.93
2022-12-18T16:30:55.940Z,34.49
2022-12-18T16:33:23.464Z,36.60
2022-12-18T16:35:50.057Z,40.01
2022-12-18T16:38:16.649Z,41.41
2022-12-18T16:40:44.255Z,30.79
2022-12-18T16:43:10.829Z,27.87
2022-12-18T16:45:37.445Z,27.78
2022-12-18T16:48:04.040Z,28.29
2022-12-18T16:50:31.651Z,28.39
2022-12-18T16:52:59.214Z,29.07
2022-12-18T16:55:26.179Z,28.07
2022-12-18T16:57:54.406Z,27.18
2022-12-18T17:00:21.019Z,28.01
2022-12-18T17:02:47.808Z,27.50
2022-12-18T17:05:15.266Z,26.85
2022-12-18T17:07:41.857Z,25.83
2022-12-18T17:10:09.431Z,26.44
2022-12-18T17:12:37.021Z,27.53
2022-12-18T17:15:04.627Z,27.97
2022-12-18T17:17:31.234Z,27.67
2022-12-18T17:19:58.794Z,29.29
2022-12-18T17:22:26.379Z,28.90
2022-12-18T17:24:52.979Z,28.49
2022-12-18T17:27:20.600Z,27.97
2022-12-18T17:29:48.799Z,29.04
2022-12-18T17:32:15.641Z,27.99
2022-12-18T17:34:42.055Z,27.01
2022-12-18T17:37:08.926Z,27.04
2022-12-18T17:39:35.548Z,27.30
2022-12-18T17:42:03.120Z,27.55
2022-12-18T17:44:31.709Z,27.23
2022-12-18T17:46:58.326Z,28.19
2022-12-18T17:49:25.931Z,29.08
2022-12-18T17:51:53.588Z,30.48
2022-12-18T17:54:21.113Z,30.67
2022-12-18T17:56:49.709Z,31.90
2022-12-18T17:59:17.305Z,30.61
2022-12-18T18:01:45.626Z,30.83
2022-12-18T18:04:13.654Z,30.78
2022-12-18T18:06:41.075Z,30.48
2022-12-18T18:09:11.171Z,30.40
2022-12-18T18:11:44.278Z,28.87
2022-12-18T18:14:11.890Z,30.15
2022-12-18T18:16:40.562Z,31.20
2022-12-18T18:19:08.091Z,39.42
2022-12-18T18:21:34.707Z,36.00
2022-12-18T18:24:02.301Z,33.63
2022-12-18T18:26:28.876Z,36.08
2022-12-18T18:28:57.506Z,39.51
2022-12-18T18:31:25.165Z,38.00
2022-12-18T18:33:52.671Z,37.29
2022-12-18T18:36:19.287Z,35.43
2022-12-18T18:38:48.523Z,33.69
2022-12-18T18:41:15.467Z,56.42
2022-12-18T18:43:43.379Z,35.74
2022-12-18T18:46:10.705Z,32.55
2022-12-18T18:48:38.238Z,33.13
2022-12-18T18:51:06.865Z,32.59
2022-12-18T18:53:34.680Z,32.19
2022-12-18T18:56:37.391Z,32.69
2022-12-18T18:58:48.470Z,33.31
2022-12-18T19:01:15.442Z,40.15
2022-12-18T19:03:43.315Z,43.25
2022-12-18T19:06:10.500Z,34.66
2022-12-18T19:08:38.323Z,32.25
2022-12-18T19:11:05.697Z,31.59
2022-12-18T19:13:32.292Z,33.11
2022-12-18T19:15:58.912Z,35.52
2022-12-18T19:18:26.493Z,34.84
2022-12-18T19:20:54.102Z,33.41
2022-12-18T19:23:21.673Z,32.87
2022-12-18T19:25:50.781Z,32.84
2022-12-18T19:28:26.896Z,33.61
2022-12-18T19:30:58.975Z,32.90
2022-12-18T19:33:42.236Z,31.67
2022-12-18T19:36:09.758Z,32.46
2022-12-18T19:38:37.476Z,34.25
2022-12-18T19:41:04.930Z,34.48
2022-12-18T19:43:32.526Z,36.38
2022-12-18T19:45:59.221Z,35.75
2022-12-18T19:48:26.693Z,34.71
2022-12-18T19:50:53.612Z,34.49
2022-12-18T19:53:20.917Z,34.74
2022-12-18T19:55:48.507Z,33.87
2022-12-18T19:58:17.087Z,32.67
2022-12-18T20:00:43.990Z,32.02
2022-12-18T20:03:22.367Z,34.05
2022-12-18T20:05:53.945Z,33.73
2022-12-18T20:08:22.547Z,31.65
2022-12-18T20:10:50.128Z,32.76
2022-12-18T20:13:17.721Z,34.03
2022-12-18T20:15:46.361Z,34.37
2022-12-18T20:18:12.937Z,33.68
2022-12-18T20:20:39.548Z,32.88
2022-12-18T20:23:07.147Z,31.90
2022-12-18T20:25:34.763Z,32.84
2022-12-18T20:28:01.328Z,33.02
2022-12-18T20:30:27.928Z,32.73
2022-12-18T20:32:55.508Z,33.38
2022-12-18T20:35:23.110Z,30.80
2022-12-18T20:37:50.915Z,31.13
2022-12-18T20:40:19.327Z,30.13
2022-12-18T20:42:46.930Z,30.20
2022-12-18T20:45:13.525Z,31.96
2022-12-18T20:47:40.117Z,31.97
2022-12-18T20:50:06.721Z,30.83
2022-12-18T20:52:33.300Z,31.24
2022-12-18T20:55:01.880Z,31.48
2022-12-18T20:57:28.494Z,32.04
2022-12-18T20:59:56.078Z,32.24
2022-12-18T21:02:23.133Z,33.06
2022-12-18T21:04:50.275Z,33.95
2022-12-18T21:07:16.874Z,33.45
2022-12-18T21:09:43.450Z,33.72
2022-12-18T21:12:10.398Z,33.82
2022-12-18T21:14:41.635Z,32.98
2022-12-18T21:17:08.299Z,32.61
2022-12-18T21:19:35.836Z,33.79
2022-12-18T21:22:03.422Z,36.62
2022-12-18T21:24:32.950Z,35.81
2022-12-18T21:27:00.657Z,35.39
2022-12-18T21:29:28.247Z,35.08
2022-12-18T21:31:55.042Z,34.62
2022-12-18T21:34:28.974Z,33.76
2022-12-18T21:36:56.074Z,33.01
2022-12-18T21:39:22.632Z,34.04
2022-12-18T21:41:50.240Z,35.43
2022-12-18T21:44:19.868Z,51.25
2022-12-18T21:46:51.350Z,57.28
2022-12-18T21:49:22.088Z,46.23
2022-12-18T21:51:48.659Z,44.26
2022-12-18T21:54:15.263Z,41.41
2022-12-18T21:56:42.844Z,38.98
2022-12-18T21:59:09.434Z,33.86
2022-12-18T22:01:37.049Z,33.58
2022-12-18T22:04:04.673Z,33.92
2022-12-18T22:06:32.210Z,34.82
2022-12-18T22:08:58.806Z,34.51
2022-12-18T22:11:25.393Z,33.05
2022-12-18T22:13:52.994Z,33.00
2022-12-18T22:16:19.573Z,33.40
2022-12-18T22:18:46.073Z,35.21
2022-12-18T22:21:12.771Z,36.26
2022-12-18T22:23:39.360Z,34.78
2022-12-18T22:26:06.933Z,33.12
2022-12-18T22:28:33.531Z,31.46
2022-12-18T22:31:00.039Z,31.43
2022-12-18T22:33:27.742Z,33.92
2022-12-18T22:35:55.317Z,32.42
2022-12-18T22:38:21.915Z,30.86
2022-12-18T22:40:48.482Z,31.58
2022-12-18T22:43:16.074Z,31.59
2022-12-18T22:45:42.660Z,31.47
2022-12-18T22:48:10.264Z,32.60
2022-12-18T22:50:37.841Z,33.30
2022-12-18T22:53:04.435Z,32.98
2022-12-18T22:55:32.033Z,33.69
2022-12-18T22:57:59.609Z,33.42
2022-12-18T23:00:26.275Z,33.79
2022-12-18T23:02:59.996Z,34.78
2022-12-18T23:05:28.434Z,33.93
2022-12-18T23:07:56.009Z,34.26
2022-12-18T23:10:22.590Z,36.57
2022-12-18T23:12:49.200Z,37.59
2022-12-18T23:15:16.789Z,35.93
2022-12-18T23:17:47.870Z,34.77
2022-12-18T23:20:15.016Z,34.65
2022-12-18T23:22:41.579Z,34.57
2022-12-18T23:25:08.180Z,33.63
2022-12-18T23:27:35.779Z,35.13
2022-12-18T23:30:02.374Z,33.18
2022-12-18T23:32:28.960Z,34.05
2022-12-18T23:34:56.549Z,35.03
2022-12-18T23:37:57.082Z,34.24
2022-12-18T23:40:10.819Z,33.66
2022-12-18T23:42:37.407Z,33.28
2022-12-18T23:45:07.474Z,34.45
2022-12-18T23:47:44.642Z,33.24
2022-12-18T23:50:14.245Z,33.51
2022-12-18T23:52:41.834Z,34.33
2022-12-18T23:55:09.456Z,34.32
2022-12-18T23:57:36.061Z,34.78
